Terminal Aerodrome Forecast
Issued by NWS

Home | Current Version | Previous Version | Text Only | Print | Product List | Glossary On
Versions: 1 2 3 4 5 6 7 8 9 10 11 12
000
FTUS46 KSTO 151122
TAFMHR
TAF
KMHR 151122Z 1512/1612 VRB04KT P6SM SCT250
      TEMPO 1513/1517 4SM HZ
     FM152300 33004KT P6SM BKN200
     FM160400 VRB04KT 4SM HZ BKN120
      AMD NOT SKED=

USA.gov is the U.S. government's official web portal to all federal, state and local government web resources and services.